createdAt,value
2023-03-15T00:01:48.579Z,71.22
2023-03-15T00:04:15.837Z,71.13
2023-03-15T00:06:42.407Z,71.20
2023-03-15T00:09:08.926Z,71.25
2023-03-15T00:11:35.529Z,71.76
2023-03-15T00:14:02.606Z,71.41
2023-03-15T00:16:29.297Z,71.31
2023-03-15T00:18:56.304Z,71.69
2023-03-15T00:21:22.948Z,71.95
2023-03-15T00:23:49.442Z,72.02
2023-03-15T00:26:16.497Z,72.85
2023-03-15T00:28:43.382Z,73.49
2023-03-15T00:31:18.958Z,73.61
2023-03-15T00:33:46.013Z,73.67
2023-03-15T00:36:12.776Z,74.33
2023-03-15T00:38:40.873Z,72.70
2023-03-15T00:41:09.293Z,69.89
2023-03-15T00:43:35.901Z,69.39
2023-03-15T00:46:03.293Z,69.90
2023-03-15T00:48:30.062Z,69.56
2023-03-15T00:51:11.501Z,69.28
2023-03-15T00:53:40.306Z,69.96
2023-03-15T00:56:08.657Z,71.72
2023-03-15T00:58:35.252Z,72.78
2023-03-15T01:01:12.412Z,73.44
2023-03-15T01:03:40.837Z,74.25
2023-03-15T01:06:19.264Z,74.74
2023-03-15T01:08:45.890Z,76.25
2023-03-15T01:11:15.091Z,77.38
2023-03-15T01:13:42.080Z,78.50
2023-03-15T01:16:10.066Z,79.56
2023-03-15T01:18:37.955Z,80.32
2023-03-15T01:21:11.432Z,80.99
2023-03-15T01:23:38.648Z,81.32
2023-03-15T01:26:07.811Z,81.50
2023-03-15T01:28:34.440Z,82.22
2023-03-15T01:31:01.147Z,82.49
2023-03-15T01:33:28.330Z,81.67
2023-03-15T01:36:03.886Z,81.69
2023-03-15T01:38:30.795Z,81.10
2023-03-15T01:40:57.904Z,80.68
2023-03-15T01:43:26.205Z,80.22
2023-03-15T01:46:01.651Z,80.14
2023-03-15T01:48:51.119Z,80.37
2023-03-15T01:51:32.667Z,80.50
2023-03-15T01:54:09.903Z,80.25
2023-03-15T01:56:39.152Z,80.20
2023-03-15T01:59:09.656Z,79.50
2023-03-15T02:01:37.455Z,79.20
2023-03-15T02:04:08.246Z,78.68
2023-03-15T02:06:35.362Z,78.59
2023-03-15T02:09:09.475Z,77.70
2023-03-15T02:11:36.753Z,77.65
2023-03-15T02:14:05.182Z,77.54
2023-03-15T02:16:31.734Z,77.63
2023-03-15T02:18:58.626Z,77.28
2023-03-15T02:21:30.936Z,77.06
2023-03-15T02:24:26.044Z,76.69
2023-03-15T02:26:55.302Z,76.22
2023-03-15T02:29:22.780Z,75.37
2023-03-15T02:31:49.609Z,75.12
2023-03-15T02:34:16.309Z,73.60
2023-03-15T02:36:42.774Z,73.36
2023-03-15T02:39:17.188Z,73.36
2023-03-15T02:41:52.854Z,72.73
2023-03-15T02:44:23.534Z,72.64
2023-03-15T02:46:51.616Z,72.42
2023-03-15T02:49:18.974Z,72.32
2023-03-15T02:51:45.473Z,72.50
2023-03-15T02:54:11.941Z,72.39
2023-03-15T02:56:38.385Z,72.47
2023-03-15T02:59:04.961Z,71.33
2023-03-15T03:01:31.701Z,71.71
2023-03-15T03:03:58.289Z,71.66
2023-03-15T03:06:24.795Z,71.52
2023-03-15T03:08:51.388Z,71.74
2023-03-15T03:11:17.886Z,71.01
2023-03-15T03:13:44.385Z,71.59
2023-03-15T03:16:11.326Z,71.37
2023-03-15T03:18:38.186Z,71.82
2023-03-15T03:21:06.790Z,72.25
2023-03-15T03:23:34.964Z,72.60
2023-03-15T03:26:02.313Z,72.80
2023-03-15T03:28:31.985Z,72.47
2023-03-15T03:30:59.149Z,72.39
2023-03-15T03:33:25.717Z,72.27
2023-03-15T03:35:54.138Z,72.90
2023-03-15T03:38:20.683Z,73.65
2023-03-15T03:40:47.157Z,73.41
2023-03-15T03:43:13.780Z,72.91
2023-03-15T03:45:40.246Z,73.39
2023-03-15T03:48:06.771Z,72.86
2023-03-15T03:50:33.308Z,73.16
2023-03-15T03:52:59.763Z,73.18
2023-03-15T03:55:26.217Z,72.70
2023-03-15T03:57:55.353Z,72.20
2023-03-15T04:00:21.831Z,72.49
2023-03-15T04:02:48.447Z,72.61
2023-03-15T04:05:15.897Z,72.73
2023-03-15T04:07:42.411Z,72.49
2023-03-15T04:10:09.440Z,72.71
2023-03-15T04:12:35.948Z,73.32
2023-03-15T04:15:03.370Z,73.04
2023-03-15T04:17:29.816Z,74.09
2023-03-15T04:19:56.454Z,73.78
2023-03-15T04:22:22.898Z,73.03
2023-03-15T04:24:50.668Z,72.57
2023-03-15T04:27:17.167Z,72.45
2023-03-15T04:29:43.862Z,71.97
2023-03-15T04:32:11.465Z,72.04
2023-03-15T04:34:38.910Z,72.14
2023-03-15T04:37:06.264Z,72.33
2023-03-15T04:39:32.785Z,71.76
2023-03-15T04:41:59.303Z,71.35
2023-03-15T04:44:26.673Z,70.99
2023-03-15T04:46:56.275Z,70.49
2023-03-15T04:49:22.732Z,70.40
2023-03-15T04:51:49.266Z,69.55
2023-03-15T04:54:16.277Z,68.41
2023-03-15T04:56:42.871Z,67.45
2023-03-15T04:59:11.089Z,66.96
2023-03-15T05:01:37.774Z,67.17
2023-03-15T05:04:04.402Z,66.82
2023-03-15T05:06:30.915Z,66.94
2023-03-15T05:08:57.360Z,66.94
2023-03-15T05:11:24.170Z,67.51
2023-03-15T05:13:50.809Z,67.49
2023-03-15T05:16:17.554Z,67.54
2023-03-15T05:18:45.250Z,67.70
2023-03-15T05:21:13.056Z,67.44
2023-03-15T05:23:39.657Z,67.44
2023-03-15T05:26:06.235Z,68.36
2023-03-15T05:28:32.758Z,66.87
2023-03-15T05:31:00.642Z,66.56
2023-03-15T05:33:27.451Z,65.85
2023-03-15T05:35:56.385Z,65.47
2023-03-15T05:38:26.725Z,65.38
2023-03-15T05:40:54.556Z,65.47
2023-03-15T05:43:21.774Z,65.75
2023-03-15T05:45:48.866Z,65.23
2023-03-15T05:48:17.310Z,65.65
2023-03-15T05:50:43.854Z,65.22
2023-03-15T05:53:10.629Z,64.84
2023-03-15T05:55:37.403Z,65.05
2023-03-15T05:58:04.459Z,65.21
2023-03-15T06:00:31.211Z,64.85
2023-03-15T06:02:57.711Z,65.00
2023-03-15T06:05:24.631Z,64.71
2023-03-15T06:07:51.247Z,64.67
2023-03-15T06:10:17.961Z,64.87
2023-03-15T06:12:44.875Z,64.48
2023-03-15T06:15:11.784Z,64.07
2023-03-15T06:17:38.558Z,63.74
2023-03-15T06:20:05.652Z,63.67
2023-03-15T06:22:32.347Z,63.82
2023-03-15T06:24:58.979Z,63.59
2023-03-15T06:27:25.528Z,63.67
2023-03-15T06:29:52.314Z,63.24
2023-03-15T06:32:18.944Z,63.33
2023-03-15T06:34:45.454Z,62.98
2023-03-15T06:37:16.309Z,62.95
2023-03-15T06:39:44.860Z,63.01
2023-03-15T06:42:13.828Z,62.39
2023-03-15T06:44:41.337Z,62.67
2023-03-15T06:47:08.848Z,62.16
2023-03-15T06:49:35.558Z,61.96
2023-03-15T06:52:02.782Z,61.66
2023-03-15T06:54:29.341Z,61.99
2023-03-15T06:56:55.993Z,62.13
2023-03-15T06:59:22.704Z,62.21
2023-03-15T07:01:49.291Z,62.39
2023-03-15T07:04:18.621Z,62.60
2023-03-15T07:06:45.216Z,62.32
2023-03-15T07:09:11.751Z,61.92
2023-03-15T07:11:38.291Z,61.75
2023-03-15T07:14:04.769Z,61.93
2023-03-15T07:16:31.391Z,62.24
2023-03-15T07:19:00.015Z,61.85
2023-03-15T07:21:27.395Z,61.91
2023-03-15T07:23:54.582Z,61.68
2023-03-15T07:26:21.177Z,61.42
2023-03-15T07:28:47.663Z,62.30
2023-03-15T07:31:16.527Z,62.09
2023-03-15T07:33:43.160Z,62.24
2023-03-15T07:36:09.860Z,61.73
2023-03-15T07:38:36.726Z,61.27
2023-03-15T07:41:05.877Z,61.28
2023-03-15T07:43:32.869Z,60.62
2023-03-15T07:45:59.764Z,60.53
2023-03-15T07:48:26.412Z,60.42
2023-03-15T07:50:52.931Z,60.41
2023-03-15T07:53:19.543Z,60.00
2023-03-15T07:55:48.051Z,59.85
2023-03-15T07:58:16.986Z,58.63
2023-03-15T08:00:44.528Z,58.72
2023-03-15T08:03:11.494Z,58.69
2023-03-15T08:05:38.394Z,59.09
2023-03-15T08:08:05.445Z,59.09
2023-03-15T08:10:32.079Z,58.90
2023-03-15T08:12:58.660Z,56.16
2023-03-15T08:15:25.154Z,55.72
2023-03-15T08:17:51.835Z,53.85
2023-03-15T08:20:21.618Z,53.36
2023-03-15T08:22:50.210Z,51.77
2023-03-15T08:25:20.264Z,52.56
2023-03-15T08:27:47.083Z,52.90
2023-03-15T08:30:16.219Z,52.64
2023-03-15T08:32:45.063Z,53.13
2023-03-15T08:35:15.540Z,53.27
2023-03-15T08:37:47.116Z,53.27
2023-03-15T08:40:25.442Z,52.76
2023-03-15T08:42:53.186Z,53.42
2023-03-15T08:45:20.621Z,53.75
2023-03-15T08:47:47.154Z,53.47
2023-03-15T08:50:17.599Z,52.23
2023-03-15T08:52:44.441Z,50.25
2023-03-15T08:55:16.688Z,52.15
2023-03-15T08:57:43.222Z,52.92
2023-03-15T09:00:17.350Z,50.48
2023-03-15T09:02:44.062Z,51.17
2023-03-15T09:05:12.207Z,50.15
2023-03-15T09:07:43.215Z,50.04
2023-03-15T09:10:13.216Z,50.08
2023-03-15T09:12:41.030Z,49.37
2023-03-15T09:15:08.134Z,50.10
2023-03-15T09:17:34.678Z,49.91
2023-03-15T09:20:01.213Z,49.52
2023-03-15T09:22:39.035Z,51.00
2023-03-15T09:25:07.018Z,50.81
2023-03-15T09:27:34.001Z,51.71
2023-03-15T09:30:00.631Z,52.36
2023-03-15T09:32:27.257Z,51.07
2023-03-15T09:34:53.797Z,50.07
2023-03-15T09:37:21.822Z,49.47
2023-03-15T09:39:48.364Z,49.50
2023-03-15T09:42:25.466Z,49.04
2023-03-15T09:45:14.948Z,49.51
2023-03-15T09:48:01.253Z,49.24
2023-03-15T09:50:46.998Z,49.11
2023-03-15T09:53:36.985Z,47.26
2023-03-15T09:56:03.817Z,48.62
2023-03-15T09:58:35.487Z,49.45
2023-03-15T10:01:07.021Z,48.99
2023-03-15T10:03:50.547Z,47.32
2023-03-15T10:06:24.372Z,46.29
2023-03-15T10:08:55.532Z,46.29
2023-03-15T10:11:46.630Z,45.65
2023-03-15T10:14:39.355Z,45.00
2023-03-15T10:17:24.366Z,46.16
2023-03-15T10:20:01.448Z,46.15
2023-03-15T10:22:34.438Z,46.06
2023-03-15T10:25:17.871Z,46.97
2023-03-15T10:27:54.416Z,45.57
2023-03-15T10:30:29.655Z,42.91
2023-03-15T10:33:00.808Z,43.56
2023-03-15T10:35:27.556Z,43.51
2023-03-15T10:37:54.776Z,44.34
2023-03-15T10:40:45.059Z,44.58
2023-03-15T10:43:30.247Z,45.79
2023-03-15T10:46:13.627Z,45.77
2023-03-15T10:49:20.719Z,45.73
2023-03-15T10:51:48.817Z,44.38
2023-03-15T10:54:18.150Z,45.13
2023-03-15T10:56:51.083Z,45.46
2023-03-15T10:59:24.207Z,45.49
2023-03-15T11:02:08.200Z,44.13
2023-03-15T11:04:34.983Z,46.02
2023-03-15T11:07:03.429Z,45.13
2023-03-15T11:09:45.675Z,44.72
2023-03-15T11:12:24.788Z,44.53
2023-03-15T11:14:56.688Z,44.85
2023-03-15T11:17:26.489Z,44.08
2023-03-15T11:20:13.352Z,44.06
2023-03-15T11:22:40.500Z,42.81
2023-03-15T11:25:15.991Z,41.65
2023-03-15T11:27:43.558Z,40.45
2023-03-15T11:30:15.781Z,40.14
2023-03-15T11:32:43.876Z,41.50
2023-03-15T11:35:16.926Z,42.10
2023-03-15T11:37:55.184Z,43.20
2023-03-15T11:40:33.863Z,42.49
2023-03-15T11:43:08.357Z,42.02
2023-03-15T11:45:46.983Z,41.24
2023-03-15T11:48:18.447Z,41.31
2023-03-15T11:50:45.362Z,41.85
2023-03-15T11:53:16.801Z,41.97
2023-03-15T11:55:49.331Z,42.27
2023-03-15T11:58:30.192Z,42.01
2023-03-15T12:01:10.793Z,42.01
2023-03-15T12:03:42.486Z,41.91
2023-03-15T12:06:13.550Z,41.71
2023-03-15T12:08:53.765Z,41.24
2023-03-15T12:11:20.606Z,41.95
2023-03-15T12:13:59.375Z,42.61
2023-03-15T12:16:28.501Z,42.06
2023-03-15T12:18:59.207Z,42.31
2023-03-15T12:21:34.488Z,42.11
2023-03-15T12:24:15.218Z,42.37
2023-03-15T12:26:44.365Z,42.03
2023-03-15T12:29:33.644Z,42.47
2023-03-15T12:32:09.044Z,41.75
2023-03-15T12:34:37.727Z,42.26
2023-03-15T12:37:16.495Z,41.75
2023-03-15T12:39:46.281Z,42.30
2023-03-15T12:42:32.956Z,42.50
2023-03-15T12:45:17.853Z,42.54
2023-03-15T12:47:50.251Z,42.38
2023-03-15T12:50:39.541Z,41.42
2023-03-15T12:53:16.832Z,41.76
2023-03-15T12:55:43.703Z,41.36
2023-03-15T12:58:12.144Z,41.46
2023-03-15T13:00:41.191Z,41.11
2023-03-15T13:03:12.199Z,40.90
2023-03-15T13:06:03.765Z,41.23
2023-03-15T13:08:58.369Z,41.68
2023-03-15T13:11:37.221Z,40.09
2023-03-15T13:14:12.710Z,40.26
2023-03-15T13:16:47.258Z,41.00
2023-03-15T13:19:14.849Z,41.14
2023-03-15T13:22:00.261Z,41.93
2023-03-15T13:25:00.262Z,42.88
2023-03-15T13:27:35.768Z,42.56
2023-03-15T13:30:25.146Z,41.77
2023-03-15T13:33:27.476Z,41.10
2023-03-15T13:36:06.795Z,39.67
2023-03-15T13:38:34.703Z,39.19
2023-03-15T13:41:03.723Z,39.54
2023-03-15T13:43:39.724Z,40.12
2023-03-15T13:46:06.498Z,40.54
2023-03-15T13:48:35.678Z,40.73
2023-03-15T13:51:11.382Z,40.71
2023-03-15T13:53:49.548Z,40.00
2023-03-15T13:56:20.824Z,40.82
2023-03-15T13:58:48.575Z,40.97
2023-03-15T14:01:16.664Z,40.84
2023-03-15T14:03:44.024Z,40.94
2023-03-15T14:06:21.907Z,40.26
2023-03-15T14:08:49.686Z,40.24
2023-03-15T14:11:30.856Z,40.54
2023-03-15T14:14:00.070Z,41.62
2023-03-15T14:17:02.994Z,41.61
2023-03-15T14:19:33.081Z,41.93
2023-03-15T14:22:01.324Z,42.92
2023-03-15T14:24:35.741Z,43.28
2023-03-15T14:27:06.314Z,43.51
2023-03-15T14:29:34.986Z,43.97
2023-03-15T14:32:05.494Z,44.24
2023-03-15T14:34:37.265Z,44.27
2023-03-15T14:37:09.887Z,43.72
2023-03-15T14:39:41.634Z,43.88
2023-03-15T14:42:12.073Z,43.95
2023-03-15T14:44:38.675Z,44.01
2023-03-15T14:47:16.589Z,42.32
2023-03-15T14:49:43.209Z,42.81
2023-03-15T14:52:12.676Z,41.93
2023-03-15T14:54:42.731Z,42.40
2023-03-15T14:57:09.380Z,41.72
2023-03-15T14:59:36.121Z,41.21
2023-03-15T15:02:03.283Z,40.19
2023-03-15T15:04:33.601Z,40.05
2023-03-15T15:07:03.133Z,40.41
2023-03-15T15:09:31.012Z,39.82
2023-03-15T15:11:57.619Z,39.76
2023-03-15T15:14:24.228Z,40.09
2023-03-15T15:16:51.855Z,42.32
2023-03-15T15:19:18.455Z,40.96
2023-03-15T15:21:44.995Z,41.06
2023-03-15T15:24:15.399Z,41.66
2023-03-15T15:26:42.194Z,42.11
2023-03-15T15:29:14.093Z,41.86
2023-03-15T15:31:41.615Z,43.56
2023-03-15T15:34:09.358Z,42.49
2023-03-15T15:36:39.124Z,43.21
2023-03-15T15:39:27.562Z,43.95
2023-03-15T15:41:54.311Z,44.64
2023-03-15T15:44:22.747Z,44.48
2023-03-15T15:46:49.868Z,44.52
2023-03-15T15:49:16.828Z,44.55
2023-03-15T15:51:49.474Z,44.20
2023-03-15T15:54:20.490Z,44.30
2023-03-15T15:56:52.579Z,44.92
2023-03-15T15:59:19.529Z,44.51
2023-03-15T16:01:59.596Z,43.71
2023-03-15T16:04:27.035Z,43.60
2023-03-15T16:07:01.744Z,44.04
2023-03-15T16:09:30.470Z,45.15
2023-03-15T16:11:57.211Z,44.85
2023-03-15T16:14:23.787Z,44.65
2023-03-15T16:16:50.842Z,45.32
2023-03-15T16:19:17.454Z,45.80
2023-03-15T16:21:47.614Z,45.49
2023-03-15T16:24:26.414Z,45.90
2023-03-15T16:27:00.987Z,46.37
2023-03-15T16:29:43.308Z,46.77
2023-03-15T16:32:19.354Z,46.80
2023-03-15T16:34:52.344Z,47.11
2023-03-15T16:37:26.551Z,47.82
2023-03-15T16:39:55.774Z,47.72
2023-03-15T16:42:24.425Z,47.67
2023-03-15T16:44:52.060Z,48.21
2023-03-15T16:47:19.184Z,48.65
2023-03-15T16:49:45.792Z,48.93
2023-03-15T16:52:13.902Z,49.34
2023-03-15T16:54:41.802Z,49.63
2023-03-15T16:57:21.854Z,49.87
2023-03-15T16:59:48.855Z,50.32
2023-03-15T17:02:26.173Z,50.82
2023-03-15T17:04:53.073Z,51.07
2023-03-15T17:07:31.615Z,51.61
2023-03-15T17:09:58.306Z,51.94
2023-03-15T17:12:28.514Z,52.37
2023-03-15T17:14:56.973Z,53.00
2023-03-15T17:17:27.050Z,53.54
2023-03-15T17:19:54.110Z,53.87
2023-03-15T17:22:21.343Z,54.03
2023-03-15T17:24:48.501Z,54.79
2023-03-15T17:27:25.725Z,55.23
2023-03-15T17:29:52.296Z,55.11
2023-03-15T17:32:18.855Z,55.21
2023-03-15T17:34:47.446Z,55.29
2023-03-15T17:37:18.429Z,56.46
2023-03-15T17:39:45.253Z,56.75
2023-03-15T17:42:16.132Z,57.18
2023-03-15T17:44:42.657Z,57.77
2023-03-15T17:47:12.443Z,57.80
2023-03-15T17:49:39.520Z,58.55
2023-03-15T17:52:13.224Z,58.69
2023-03-15T17:54:39.912Z,58.79
2023-03-15T17:57:06.914Z,58.54
2023-03-15T17:59:33.407Z,58.77
2023-03-15T18:01:59.966Z,59.31
2023-03-15T18:04:26.691Z,59.60
2023-03-15T18:06:53.975Z,59.36
2023-03-15T18:09:22.235Z,59.46
2023-03-15T18:11:48.862Z,59.90
2023-03-15T18:14:16.627Z,59.99
2023-03-15T18:16:43.830Z,60.04
2023-03-15T18:19:10.631Z,60.38
2023-03-15T18:21:37.496Z,60.53
2023-03-15T18:24:04.108Z,60.71
2023-03-15T18:26:30.721Z,60.83
2023-03-15T18:28:57.212Z,61.18
2023-03-15T18:31:25.282Z,61.09
2023-03-15T18:33:52.446Z,61.17
2023-03-15T18:36:19.441Z,61.05
2023-03-15T18:38:46.222Z,61.51
2023-03-15T18:41:20.827Z,61.99
2023-03-15T18:43:49.956Z,62.52
2023-03-15T18:46:18.468Z,62.77
2023-03-15T18:48:46.071Z,62.84
2023-03-15T18:51:13.919Z,62.79
2023-03-15T18:53:42.491Z,62.01
2023-03-15T18:56:16.279Z,62.16
2023-03-15T18:58:42.773Z,62.72
2023-03-15T19:01:09.339Z,62.54
2023-03-15T19:03:35.858Z,62.41
2023-03-15T19:06:06.902Z,62.23
2023-03-15T19:08:34.173Z,62.10
2023-03-15T19:11:02.075Z,62.26
2023-03-15T19:13:28.695Z,62.67
2023-03-15T19:15:55.869Z,63.28
2023-03-15T19:18:23.116Z,63.59
2023-03-15T19:20:51.577Z,64.26
2023-03-15T19:23:18.525Z,64.22
2023-03-15T19:25:45.784Z,64.27
2023-03-15T19:28:12.551Z,64.28
2023-03-15T19:30:39.179Z,64.23
2023-03-15T19:33:05.795Z,64.48
2023-03-15T19:35:33.670Z,64.95
2023-03-15T19:38:00.531Z,64.99
2023-03-15T19:40:27.116Z,64.66
2023-03-15T19:42:53.725Z,64.66
2023-03-15T19:45:20.538Z,64.33
2023-03-15T19:47:47.170Z,64.86
2023-03-15T19:50:14.879Z,64.99
2023-03-15T19:52:45.790Z,65.62
2023-03-15T19:55:13.906Z,65.60
2023-03-15T19:57:40.533Z,65.51
2023-03-15T20:00:12.530Z,65.32
2023-03-15T20:02:42.956Z,65.31
2023-03-15T20:05:16.001Z,65.46
2023-03-15T20:07:43.067Z,65.86
2023-03-15T20:10:11.097Z,65.77
2023-03-15T20:12:38.963Z,66.07
2023-03-15T20:15:06.836Z,66.16
2023-03-15T20:17:33.315Z,66.00
2023-03-15T20:19:59.772Z,66.00
2023-03-15T20:22:26.250Z,65.83
2023-03-15T20:24:52.707Z,66.06
2023-03-15T20:27:19.560Z,65.69
2023-03-15T20:29:46.065Z,65.65
2023-03-15T20:32:12.554Z,65.46
2023-03-15T20:34:41.426Z,65.89
2023-03-15T20:37:08.026Z,66.10
2023-03-15T20:39:34.654Z,66.59
2023-03-15T20:42:01.116Z,66.71
2023-03-15T20:44:27.652Z,67.03
2023-03-15T20:46:58.796Z,66.85
2023-03-15T20:49:27.005Z,67.07
2023-03-15T20:51:55.366Z,66.99
2023-03-15T20:54:21.812Z,66.87
2023-03-15T20:56:48.289Z,67.30
2023-03-15T20:59:15.297Z,67.12
2023-03-15T21:01:41.945Z,66.79
2023-03-15T21:04:08.429Z,66.84
2023-03-15T21:06:35.084Z,66.52
2023-03-15T21:09:01.600Z,66.25
2023-03-15T21:11:28.105Z,66.41
2023-03-15T21:13:54.664Z,66.18
2023-03-15T21:16:24.981Z,65.84
2023-03-15T21:18:53.127Z,66.06
2023-03-15T21:21:19.879Z,66.60
2023-03-15T21:23:46.470Z,66.89
2023-03-15T21:26:13.597Z,66.70
2023-03-15T21:28:41.111Z,66.79
2023-03-15T21:31:08.069Z,67.17
2023-03-15T21:33:35.319Z,66.76
2023-03-15T21:36:02.452Z,66.77
2023-03-15T21:38:31.476Z,67.07
2023-03-15T21:40:59.420Z,66.83
2023-03-15T21:43:31.835Z,66.97
2023-03-15T21:46:02.622Z,66.87
2023-03-15T21:48:29.444Z,66.89
2023-03-15T21:50:56.358Z,66.76
2023-03-15T21:53:23.181Z,66.75
2023-03-15T21:55:49.888Z,66.31
2023-03-15T21:58:16.573Z,65.95
2023-03-15T22:00:43.273Z,65.89
2023-03-15T22:03:09.766Z,65.57
2023-03-15T22:05:36.606Z,65.30
2023-03-15T22:08:03.361Z,65.41
2023-03-15T22:10:29.874Z,65.23
2023-03-15T22:12:56.417Z,65.06
2023-03-15T22:15:23.098Z,65.55
2023-03-15T22:17:50.378Z,65.32
2023-03-15T22:20:17.328Z,66.31
2023-03-15T22:22:45.352Z,66.53
2023-03-15T22:25:12.772Z,66.48
2023-03-15T22:27:39.759Z,67.16
2023-03-15T22:30:09.542Z,67.67
2023-03-15T22:32:36.125Z,67.40
2023-03-15T22:35:02.598Z,67.37
2023-03-15T22:37:29.089Z,67.02
2023-03-15T22:39:55.531Z,66.84
2023-03-15T22:42:22.071Z,67.62
2023-03-15T22:44:48.580Z,67.51
2023-03-15T22:47:15.553Z,67.83
2023-03-15T22:49:42.080Z,67.80
2023-03-15T22:52:08.675Z,67.58
2023-03-15T22:54:35.300Z,68.28
2023-03-15T22:57:01.927Z,68.36
2023-03-15T22:59:29.119Z,68.41
2023-03-15T23:01:56.689Z,68.80
2023-03-15T23:04:23.977Z,69.06
2023-03-15T23:06:51.640Z,69.57
2023-03-15T23:09:18.147Z,69.32
2023-03-15T23:11:44.859Z,69.55
2023-03-15T23:14:11.485Z,69.26
2023-03-15T23:16:37.979Z,69.67
